createdAt,value
2022-08-26T00:02:07.140Z,101208.75
2022-08-26T00:04:34.852Z,101215.94
2022-08-26T00:07:05.355Z,101211.16
2022-08-26T00:09:33.507Z,101205.75
2022-08-26T00:12:07.029Z,101204.69
2022-08-26T00:14:34.597Z,101203.81
2022-08-26T00:17:02.329Z,101197.88
2022-08-26T00:19:30.174Z,101193.25
2022-08-26T00:21:57.873Z,101199.25
2022-08-26T00:24:26.817Z,101193.41
2022-08-26T00:26:54.448Z,101186.50
2022-08-26T00:29:22.208Z,101184.97
2022-08-26T00:31:50.191Z,101185.50
2022-08-26T00:34:19.526Z,101177.31
2022-08-26T00:36:47.382Z,101187.38
2022-08-26T00:39:16.901Z,101180.75
2022-08-26T00:41:46.086Z,101177.69
2022-08-26T00:44:13.890Z,101181.09
2022-08-26T00:46:46.354Z,101179.06
2022-08-26T00:49:15.162Z,101182.50
2022-08-26T00:51:45.517Z,101174.13
2022-08-26T00:54:13.267Z,101179.44
2022-08-26T00:56:42.833Z,101172.94
2022-08-26T00:59:13.364Z,101169.53
2022-08-26T01:01:42.362Z,101182.16
2022-08-26T01:04:13.994Z,101176.69
2022-08-26T01:06:41.922Z,101172.94
2022-08-26T01:09:12.051Z,101171.09
2022-08-26T01:11:39.874Z,101176.69
2022-08-26T01:14:07.944Z,101172.41
2022-08-26T01:16:37.458Z,101178.22
2022-08-26T01:19:07.856Z,101178.22
2022-08-26T01:21:40.727Z,101173.59
2022-08-26T01:24:10.380Z,101175.47
2022-08-26T01:26:40.508Z,101171.91
2022-08-26T01:29:08.539Z,101169.00
2022-08-26T01:31:37.714Z,101164.25
2022-08-26T01:34:07.274Z,101171.25
2022-08-26T01:36:36.664Z,101172.94
2022-08-26T01:39:05.877Z,101169.88
2022-08-26T01:41:36.505Z,101158.97
2022-08-26T01:44:05.256Z,101161.00
2022-08-26T01:46:32.868Z,101158.28
2022-08-26T01:49:01.346Z,101155.56
2022-08-26T01:51:29.913Z,101157.44
2022-08-26T01:53:57.842Z,101148.22
2022-08-26T01:56:33.139Z,101151.13
2022-08-26T01:59:02.511Z,101151.28
2022-08-26T02:01:30.103Z,101148.03
2022-08-26T02:04:00.273Z,101154.50
2022-08-26T02:06:27.936Z,101159.78
2022-08-26T02:08:56.676Z,101154.88
2022-08-26T02:11:24.331Z,101158.78
2022-08-26T02:13:54.787Z,101153.34
2022-08-26T02:16:24.950Z,101150.59
2022-08-26T02:18:53.290Z,101148.88
2022-08-26T02:21:21.015Z,101149.94
2022-08-26T02:23:49.121Z,101150.94
2022-08-26T02:26:18.149Z,101150.09
2022-08-26T02:28:47.992Z,101150.41
2022-08-26T02:31:15.626Z,101150.41
2022-08-26T02:33:44.601Z,101154.84
2022-08-26T02:36:13.472Z,101153.50
2022-08-26T02:38:43.257Z,101148.88
2022-08-26T02:41:11.233Z,101147.38
2022-08-26T02:43:38.858Z,101150.09
2022-08-26T02:46:06.550Z,101147.53
2022-08-26T02:48:34.169Z,101152.97
2022-08-26T02:51:05.060Z,101144.63
2022-08-26T02:53:35.573Z,101137.47
2022-08-26T02:56:03.642Z,101142.25
2022-08-26T02:58:31.412Z,101139.19
2022-08-26T03:00:59.384Z,101146.66
2022-08-26T03:03:29.352Z,101135.06
2022-08-26T03:05:58.260Z,101141.53
2022-08-26T03:08:27.558Z,101136.06
2022-08-26T03:10:55.172Z,101133.34
2022-08-26T03:13:23.585Z,101138.63
2022-08-26T03:15:51.234Z,101134.91
2022-08-26T03:18:18.915Z,101134.91
2022-08-26T03:20:48.273Z,101126.06
2022-08-26T03:23:16.453Z,101125.50
2022-08-26T03:25:51.190Z,101131.16
2022-08-26T03:28:19.434Z,101121.25
2022-08-26T03:30:47.477Z,101125.50
2022-08-26T03:33:15.290Z,101120.41
2022-08-26T03:35:43.676Z,101122.97
2022-08-26T03:38:11.345Z,101125.50
2022-08-26T03:40:39.887Z,101117.31
2022-08-26T03:43:10.359Z,101121.25
2022-08-26T03:45:38.527Z,101114.59
2022-08-26T03:48:06.325Z,101119.72
2022-08-26T03:50:35.779Z,101108.78
2022-08-26T03:53:04.117Z,101116.13
2022-08-26T03:55:32.453Z,101117.13
2022-08-26T03:58:01.093Z,101111.19
2022-08-26T04:00:30.160Z,101120.19
2022-08-26T04:02:57.847Z,101113.06
2022-08-26T04:05:25.552Z,101106.72
2022-08-26T04:07:53.111Z,101104.72
2022-08-26T04:10:28.804Z,101110.50
2022-08-26T04:12:58.866Z,101108.44
2022-08-26T04:15:26.968Z,101104.38
2022-08-26T04:17:57.338Z,101106.06
2022-08-26T04:20:25.317Z,101107.59
2022-08-26T04:22:53.094Z,101107.78
2022-08-26T04:25:21.468Z,101098.72
2022-08-26T04:27:50.021Z,101097.53
2022-08-26T04:30:20.004Z,101094.13
2022-08-26T04:32:47.727Z,101095.66
2022-08-26T04:35:17.513Z,101095.66
2022-08-26T04:37:45.363Z,101092.75
2022-08-26T04:40:13.222Z,101106.22
2022-08-26T04:42:40.912Z,101101.59
2022-08-26T04:45:09.943Z,101104.81
2022-08-26T04:47:38.244Z,101101.44
2022-08-26T04:50:06.935Z,101105.03
2022-08-26T04:52:36.611Z,101100.59
2022-08-26T04:55:06.534Z,101103.47
2022-08-26T04:57:36.375Z,101112.84
2022-08-26T05:00:04.779Z,101113.06
2022-08-26T05:02:32.402Z,101107.78
2022-08-26T05:05:00.735Z,101116.97
2022-08-26T05:07:28.608Z,101121.28
2022-08-26T05:09:57.737Z,101124.63
2022-08-26T05:12:25.354Z,101130.09
2022-08-26T05:14:53.450Z,101124.78
2022-08-26T05:17:21.083Z,101124.81
2022-08-26T05:19:50.621Z,101123.47
2022-08-26T05:22:18.429Z,101120.75
2022-08-26T05:24:46.489Z,101133.00
2022-08-26T05:27:15.745Z,101124.31
2022-08-26T05:29:45.702Z,101124.16
2022-08-26T05:32:13.777Z,101124.84
2022-08-26T05:34:42.982Z,101129.63
2022-08-26T05:37:10.717Z,101118.72
2022-08-26T05:39:41.346Z,101122.66
2022-08-26T05:42:11.681Z,101123.69
2022-08-26T05:44:55.426Z,101117.22
2022-08-26T05:47:23.516Z,101119.78
2022-08-26T05:49:51.656Z,101121.47
2022-08-26T05:52:19.665Z,101124.03
2022-08-26T05:54:47.705Z,101118.56
2022-08-26T05:57:15.888Z,101124.91
2022-08-26T05:59:45.147Z,101122.84
2022-08-26T06:02:13.992Z,101128.97
2022-08-26T06:04:43.441Z,101125.41
2022-08-26T06:07:11.562Z,101133.59
2022-08-26T06:09:41.498Z,101127.97
2022-08-26T06:12:09.340Z,101126.97
2022-08-26T06:14:37.046Z,101135.81
2022-08-26T06:17:06.346Z,101133.94
2022-08-26T06:19:37.267Z,101135.66
2022-08-26T06:22:29.311Z,101126.63
2022-08-26T06:25:14.560Z,101131.03
2022-08-26T06:27:42.162Z,101119.13
2022-08-26T06:30:10.423Z,101129.00
2022-08-26T06:32:39.416Z,101118.78
2022-08-26T06:35:12.241Z,101116.06
2022-08-26T06:37:40.054Z,101122.34
2022-08-26T06:40:09.428Z,101126.78
2022-08-26T06:42:39.118Z,101124.91
2022-08-26T06:45:07.462Z,101125.59
2022-08-26T06:47:36.293Z,101124.56
2022-08-26T06:50:05.676Z,101117.72
2022-08-26T06:52:33.302Z,101127.31
2022-08-26T06:55:02.626Z,101118.78
2022-08-26T06:57:32.853Z,101116.72
2022-08-26T07:00:02.776Z,101118.59
2022-08-26T07:02:30.692Z,101111.44
2022-08-26T07:04:58.458Z,101109.59
2022-08-26T07:07:27.475Z,101115.03
2022-08-26T07:09:55.372Z,101108.53
2022-08-26T07:12:23.024Z,101107.53
2022-08-26T07:14:53.012Z,101100.19
2022-08-26T07:17:21.482Z,101094.59
2022-08-26T07:19:53.633Z,101099.16
2022-08-26T07:22:21.548Z,101099.03
2022-08-26T07:24:50.704Z,101104.31
2022-08-26T07:27:18.277Z,101099.72
2022-08-26T07:29:45.973Z,101091.34
2022-08-26T07:32:14.220Z,101086.72
2022-08-26T07:34:42.545Z,101093.91
2022-08-26T07:37:10.123Z,101090.34
2022-08-26T07:39:37.955Z,101093.06
2022-08-26T07:42:09.495Z,101093.91
2022-08-26T07:44:37.601Z,101090.16
2022-08-26T07:47:10.067Z,101085.72
2022-08-26T07:49:52.685Z,101089.13
2022-08-26T07:52:25.317Z,101092.72
2022-08-26T07:54:54.144Z,101093.56
2022-08-26T07:57:24.277Z,101092.56
2022-08-26T07:59:52.106Z,101092.56
2022-08-26T08:02:22.188Z,101095.13
2022-08-26T08:04:49.961Z,101091.50
2022-08-26T08:07:17.890Z,101098.69
2022-08-26T08:09:45.480Z,101086.94
2022-08-26T08:12:14.220Z,101082.31
2022-08-26T08:14:45.359Z,101086.94
2022-08-26T08:17:13.252Z,101088.44
2022-08-26T08:19:40.889Z,101081.31
2022-08-26T08:22:17.626Z,101082.16
2022-08-26T08:24:49.663Z,101077.53
2022-08-26T08:27:22.815Z,101080.25
2022-08-26T08:29:54.899Z,101072.06
2022-08-26T08:32:24.378Z,101070.03
2022-08-26T08:34:52.936Z,101072.78
2022-08-26T08:37:21.006Z,101078.91
2022-08-26T08:39:49.466Z,101070.72
2022-08-26T08:42:29.256Z,101067.97
2022-08-26T08:44:58.592Z,101060.63
2022-08-26T08:47:29.097Z,101063.19
2022-08-26T08:49:57.213Z,101066.81
2022-08-26T08:52:29.056Z,101069.53
2022-08-26T08:54:57.193Z,101069.34
2022-08-26T08:57:26.840Z,101059.28
2022-08-26T08:59:55.590Z,101064.56
2022-08-26T09:02:25.337Z,101057.03
2022-08-26T09:04:57.517Z,101063.34
2022-08-26T09:07:27.199Z,101056.03
2022-08-26T09:09:55.760Z,101058.75
2022-08-26T09:12:29.490Z,101058.41
2022-08-26T09:14:59.790Z,101063.88
2022-08-26T09:17:31.331Z,101058.91
2022-08-26T09:20:02.215Z,101058.06
2022-08-26T09:22:30.679Z,101058.06
2022-08-26T09:24:58.554Z,101050.91
2022-08-26T09:27:44.302Z,101030.09
2022-08-26T09:30:13.180Z,101046.28
2022-08-26T09:32:44.424Z,101047.16
2022-08-26T09:35:25.288Z,101045.25
2022-08-26T09:37:53.680Z,101043.38
2022-08-26T09:40:24.048Z,101045.25
2022-08-26T09:43:08.019Z,101032.47
2022-08-26T09:45:35.846Z,101022.59
2022-08-26T09:48:04.967Z,101024.25
2022-08-26T09:50:33.305Z,101029.56
2022-08-26T09:53:12.973Z,101016.94
2022-08-26T09:55:41.949Z,101014.22
2022-08-26T09:58:10.374Z,101001.41
2022-08-26T10:00:38.766Z,101001.41
2022-08-26T10:03:09.072Z,100987.75
2022-08-26T10:05:39.737Z,100978.72
2022-08-26T10:08:23.582Z,100964.03
2022-08-26T10:10:53.424Z,100964.03
2022-08-26T10:13:24.442Z,100956.72
2022-08-26T10:15:55.660Z,100953.81
2022-08-26T10:18:26.674Z,100954.28
2022-08-26T10:20:59.666Z,100957.03
2022-08-26T10:23:28.524Z,100947.13
2022-08-26T10:25:58.960Z,100949.84
2022-08-26T10:28:28.977Z,100948.00
2022-08-26T10:30:57.837Z,100949.84
2022-08-26T10:33:27.264Z,100938.94
2022-08-26T10:35:56.561Z,100939.81
2022-08-26T10:38:28.728Z,100930.56
2022-08-26T10:40:58.630Z,100924.25
2022-08-26T10:43:27.626Z,100906.53
2022-08-26T10:45:56.206Z,100923.22
2022-08-26T10:48:25.607Z,100917.75
2022-08-26T10:51:05.661Z,100915.88
2022-08-26T10:53:35.913Z,100914.00
2022-08-26T10:56:06.300Z,100917.75
2022-08-26T10:58:50.023Z,100916.72
2022-08-26T11:01:36.409Z,100922.19
2022-08-26T11:04:11.341Z,100922.19
2022-08-26T11:06:41.926Z,100933.13
2022-08-26T11:09:09.998Z,100923.22
2022-08-26T11:11:48.012Z,100942.31
2022-08-26T11:14:42.089Z,100938.75
2022-08-26T11:17:36.411Z,100933.28
2022-08-26T11:20:09.244Z,100916.06
2022-08-26T11:22:47.875Z,100905.16
2022-08-26T11:25:15.779Z,100901.38
2022-08-26T11:28:04.306Z,100906.81
2022-08-26T11:30:37.375Z,100909.56
2022-08-26T11:33:06.169Z,100908.72
2022-08-26T11:35:46.946Z,100915.03
2022-08-26T11:38:19.178Z,100899.50
2022-08-26T11:40:46.802Z,100899.34
2022-08-26T11:43:16.888Z,100890.09
2022-08-26T11:45:44.917Z,100891.13
2022-08-26T11:48:15.876Z,100911.94
2022-08-26T11:50:53.119Z,100904.63
2022-08-26T11:53:22.953Z,100884.63
2022-08-26T11:55:51.390Z,100899.16
2022-08-26T11:58:20.867Z,100909.19
2022-08-26T12:00:51.349Z,100915.53
2022-08-26T12:03:20.811Z,100920.13
2022-08-26T12:05:51.842Z,100912.97
2022-08-26T12:08:21.557Z,100904.78
2022-08-26T12:10:53.234Z,100902.06
2022-08-26T12:13:22.238Z,100881.06
2022-08-26T12:15:53.078Z,100871.84
2022-08-26T12:18:29.554Z,100873.72
2022-08-26T12:21:05.770Z,100885.31
2022-08-26T12:23:50.855Z,100907.84
2022-08-26T12:26:26.655Z,100922.31
2022-08-26T12:28:58.924Z,100942.50
2022-08-26T12:31:28.695Z,100947.06
2022-08-26T12:33:57.068Z,100946.25
2022-08-26T12:36:28.802Z,100968.94
2022-08-26T12:38:58.383Z,100982.56
2022-08-26T12:41:41.622Z,100983.63
2022-08-26T12:44:09.399Z,100980.91
2022-08-26T12:46:37.579Z,100979.00
2022-08-26T12:49:05.322Z,100988.03
2022-08-26T12:51:33.125Z,100983.63
2022-08-26T12:54:02.249Z,100988.03
2022-08-26T12:56:32.429Z,100979.84
2022-08-26T12:59:11.171Z,100968.94
2022-08-26T13:01:42.912Z,100953.41
2022-08-26T13:04:26.036Z,100948.97
2022-08-26T13:07:08.517Z,100955.28
2022-08-26T13:09:36.361Z,100948.78
2022-08-26T13:12:04.418Z,100947.06
2022-08-26T13:14:33.381Z,100946.06
2022-08-26T13:17:04.362Z,100955.97
2022-08-26T13:19:32.458Z,100954.25
2022-08-26T13:22:00.646Z,100957.81
2022-08-26T13:24:30.038Z,100957.66
2022-08-26T13:27:00.155Z,100961.25
2022-08-26T13:29:27.761Z,100955.97
2022-08-26T13:31:57.778Z,100971.47
2022-08-26T13:34:25.495Z,100982.41
2022-08-26T13:36:54.173Z,100995.22
2022-08-26T13:39:22.079Z,101014.34
2022-08-26T13:41:49.838Z,101033.28
2022-08-26T13:44:17.695Z,101032.44
2022-08-26T13:46:47.746Z,101051.72
2022-08-26T13:49:16.953Z,101058.03
2022-08-26T13:51:44.621Z,101058.88
2022-08-26T13:54:12.256Z,101062.66
2022-08-26T13:56:40.201Z,101062.66
2022-08-26T13:59:07.899Z,101065.72
2022-08-26T14:01:36.122Z,101032.97
2022-08-26T14:04:04.235Z,101031.91
2022-08-26T14:06:33.521Z,101030.06
2022-08-26T14:09:01.517Z,101029.34
2022-08-26T14:11:30.254Z,101027.66
2022-08-26T14:14:16.750Z,101021.16
2022-08-26T14:16:59.718Z,101012.97
2022-08-26T14:19:28.651Z,100986.53
2022-08-26T14:21:58.865Z,100971.00
2022-08-26T14:24:26.570Z,100971.00
2022-08-26T14:26:54.228Z,100955.44
2022-08-26T14:29:22.156Z,100930.03
2022-08-26T14:31:49.895Z,100920.13
2022-08-26T14:34:17.866Z,100914.50
2022-08-26T14:36:45.500Z,100907.16
2022-08-26T14:39:14.859Z,100912.63
2022-08-26T14:41:43.904Z,100913.47
2022-08-26T14:44:12.582Z,100903.38
2022-08-26T14:46:44.865Z,100897.94
2022-08-26T14:49:12.740Z,100887.00
2022-08-26T14:51:41.058Z,100883.25
2022-08-26T14:54:13.867Z,100877.13
2022-08-26T14:56:44.092Z,100880.03
2022-08-26T14:59:11.768Z,100868.25
2022-08-26T15:01:39.587Z,100860.06
2022-08-26T15:04:07.344Z,100851.19
2022-08-26T15:06:35.716Z,100841.13
2022-08-26T15:09:03.418Z,100832.28
2022-08-26T15:11:31.121Z,100829.34
2022-08-26T15:14:00.887Z,100825.13
2022-08-26T15:16:29.299Z,100815.88
2022-08-26T15:18:56.945Z,100820.50
2022-08-26T15:21:24.621Z,100816.72
2022-08-26T15:23:52.629Z,100813.81
2022-08-26T15:26:21.187Z,100815.53
2022-08-26T15:28:48.943Z,100808.16
2022-08-26T15:31:17.923Z,100803.41
2022-08-26T15:33:45.890Z,100795.22
2022-08-26T15:36:13.524Z,100785.13
2022-08-26T15:38:41.497Z,100776.09
2022-08-26T15:41:09.384Z,100773.56
2022-08-26T15:43:37.271Z,100767.22
2022-08-26T15:46:05.153Z,100766.19
2022-08-26T15:48:34.353Z,100764.13
2022-08-26T15:51:02.129Z,100764.13
2022-08-26T15:53:30.100Z,100751.53
2022-08-26T15:55:57.800Z,100750.66
2022-08-26T15:58:26.403Z,100751.53
2022-08-26T16:00:54.878Z,100764.13
2022-08-26T16:03:22.668Z,100764.13
2022-08-26T16:05:52.013Z,100765.19
2022-08-26T16:08:20.375Z,100774.22
2022-08-26T16:10:50.685Z,100776.09
2022-08-26T16:13:18.958Z,100780.69
2022-08-26T16:15:47.459Z,100789.56
2022-08-26T16:18:15.637Z,100795.88
2022-08-26T16:20:55.364Z,100798.78
2022-08-26T16:23:37.608Z,100813.47
2022-08-26T16:26:10.584Z,100821.66
2022-08-26T16:28:38.437Z,100827.28
2022-08-26T16:31:08.368Z,100837.19
2022-08-26T16:33:37.705Z,100842.00
2022-08-26T16:36:05.628Z,100842.81
2022-08-26T16:38:33.301Z,100827.28
2022-08-26T16:41:02.254Z,100831.06
2022-08-26T16:43:29.890Z,100829.34
2022-08-26T16:45:57.658Z,100829.34
2022-08-26T16:48:25.347Z,100832.94
2022-08-26T16:50:55.403Z,100836.53
2022-08-26T16:53:23.258Z,100844.72
2022-08-26T16:55:51.404Z,100855.63
2022-08-26T16:58:23.570Z,100853.94
2022-08-26T17:00:51.266Z,100858.38
2022-08-26T17:03:18.903Z,100865.69
2022-08-26T17:05:46.634Z,100866.75
2022-08-26T17:08:24.251Z,100866.75
2022-08-26T17:10:56.028Z,100872.19
2022-08-26T17:13:35.931Z,100871.34
2022-08-26T17:16:05.022Z,100868.59
2022-08-26T17:18:33.350Z,100871.34
2022-08-26T17:21:01.528Z,100855.16
2022-08-26T17:23:29.777Z,100854.09
2022-08-26T17:25:57.722Z,100854.28
2022-08-26T17:28:26.780Z,100852.44
2022-08-26T17:30:56.155Z,100847.81
2022-08-26T17:33:24.781Z,100852.44
2022-08-26T17:35:52.959Z,100845.06
2022-08-26T17:38:20.784Z,100836.03
2022-08-26T17:40:48.545Z,100831.44
2022-08-26T17:43:16.728Z,100833.50
2022-08-26T17:45:45.636Z,100832.44
2022-08-26T17:48:13.211Z,100838.97
2022-08-26T17:50:41.215Z,100830.75
2022-08-26T17:53:08.975Z,100827.16
2022-08-26T17:55:41.417Z,100827.34
2022-08-26T17:58:14.661Z,100825.47
2022-08-26T18:00:44.902Z,100817.47
2022-08-26T18:03:12.567Z,100810.13
2022-08-26T18:05:40.162Z,100811.13
2022-08-26T18:08:11.051Z,100813.03
2022-08-26T18:10:43.752Z,100801.09
2022-08-26T18:13:11.491Z,100812.19
2022-08-26T18:15:40.062Z,100815.75
2022-08-26T18:18:09.289Z,100812.00
2022-08-26T18:20:38.692Z,100814.75
2022-08-26T18:23:06.619Z,100812.00
2022-08-26T18:25:34.521Z,100813.03
2022-08-26T18:28:04.135Z,100806.72
2022-08-26T18:30:31.807Z,100810.47
2022-08-26T18:32:59.580Z,100811.69
2022-08-26T18:35:30.351Z,100814.22
2022-08-26T18:37:58.326Z,100806.03
2022-08-26T18:40:30.029Z,100803.47
2022-08-26T18:42:57.878Z,100814.41
2022-08-26T18:45:25.714Z,100804.53
2022-08-26T18:47:53.533Z,100812.72
2022-08-26T18:50:21.222Z,100795.84
2022-08-26T18:52:50.370Z,100799.44
2022-08-26T18:55:18.024Z,100796.34
2022-08-26T18:57:45.656Z,100791.25
2022-08-26T19:00:13.818Z,100798.88
2022-08-26T19:02:41.478Z,100797.25
2022-08-26T19:05:14.587Z,100801.91
2022-08-26T19:07:42.212Z,100807.56
2022-08-26T19:10:14.814Z,100813.03
2022-08-26T19:12:42.563Z,100828.53
2022-08-26T19:15:11.996Z,100829.84
2022-08-26T19:17:39.592Z,100843.66
2022-08-26T19:20:07.923Z,100844.34
2022-08-26T19:22:35.542Z,100856.81
2022-08-26T19:25:05.395Z,100866.31
2022-08-26T19:27:34.616Z,100876.88
2022-08-26T19:30:02.338Z,100885.72
2022-08-26T19:32:30.193Z,100887.09
2022-08-26T19:34:58.064Z,100893.72
2022-08-26T19:37:26.250Z,100900.38
2022-08-26T19:39:53.989Z,100894.25
2022-08-26T19:42:21.580Z,100895.28
2022-08-26T19:45:24.569Z,100904.69
2022-08-26T19:47:54.136Z,100895.28
2022-08-26T19:50:22.147Z,100897.34
2022-08-26T19:52:53.035Z,100887.97
2022-08-26T19:55:23.676Z,100887.63
2022-08-26T19:57:52.397Z,100889.84
2022-08-26T20:00:22.353Z,100882.19
2022-08-26T20:02:50.305Z,100884.56
2022-08-26T20:05:18.126Z,100874.34
2022-08-26T20:07:45.795Z,100869.25
2022-08-26T20:10:13.612Z,100863.28
2022-08-26T20:12:41.618Z,100877.25
2022-08-26T20:15:09.557Z,100877.41
2022-08-26T20:17:38.714Z,100883.56
2022-08-26T20:20:32.898Z,100868.88
2022-08-26T20:23:02.080Z,100878.44
2022-08-26T20:25:29.928Z,100891.03
2022-08-26T20:28:00.797Z,100889.69
2022-08-26T20:30:28.592Z,100887.97
2022-08-26T20:32:57.790Z,100885.25
2022-08-26T20:35:25.844Z,100877.41
2022-08-26T20:38:01.110Z,100878.44
2022-08-26T20:40:29.081Z,100883.72
2022-08-26T20:42:56.732Z,100888.00
2022-08-26T20:45:24.572Z,100889.31
2022-08-26T20:47:54.724Z,100887.63
2022-08-26T20:50:23.961Z,100896.63
2022-08-26T20:52:53.784Z,100900.88
2022-08-26T20:55:21.495Z,100896.13
2022-08-26T20:57:49.162Z,100897.81
2022-08-26T21:00:22.412Z,100902.94
2022-08-26T21:02:54.242Z,100908.06
2022-08-26T21:05:25.490Z,100901.25
2022-08-26T21:07:55.802Z,100898.88
2022-08-26T21:10:23.884Z,100897.34
2022-08-26T21:12:51.633Z,100899.72
2022-08-26T21:15:24.911Z,100899.88
2022-08-26T21:18:00.420Z,100907.72
2022-08-26T21:20:37.085Z,100895.44
2022-08-26T21:23:05.210Z,100901.94
2022-08-26T21:25:35.566Z,100906.00
2022-08-26T21:28:03.220Z,100903.28
2022-08-26T21:30:31.313Z,100906.34
2022-08-26T21:32:59.182Z,100913.16
2022-08-26T21:35:27.026Z,100902.25
2022-08-26T21:38:16.440Z,100902.59
2022-08-26T21:40:46.424Z,100899.53
2022-08-26T21:43:34.929Z,100901.59
2022-08-26T21:46:03.993Z,100911.78
2022-08-26T21:48:34.636Z,100905.16
2022-08-26T21:51:03.212Z,100894.09
2022-08-26T21:53:32.359Z,100897.81
2022-08-26T21:56:00.029Z,100896.97
2022-08-26T21:58:28.303Z,100905.00
2022-08-26T22:00:56.091Z,100908.38
2022-08-26T22:03:23.879Z,100896.13
2022-08-26T22:05:51.630Z,100892.94
2022-08-26T22:08:20.518Z,100892.72
2022-08-26T22:10:52.003Z,100893.22
2022-08-26T22:13:20.180Z,100897.47
2022-08-26T22:15:47.953Z,100898.31
2022-08-26T22:18:15.784Z,100897.66
2022-08-26T22:20:46.238Z,100887.25
2022-08-26T22:23:14.094Z,100887.59
2022-08-26T22:25:41.894Z,100881.63
2022-08-26T22:28:11.168Z,100883.50
2022-08-26T22:30:39.861Z,100871.25
2022-08-26T22:33:07.788Z,100881.81
2022-08-26T22:35:38.862Z,100882.47
2022-08-26T22:38:06.753Z,100878.91
2022-08-26T22:40:34.910Z,100878.75
2022-08-26T22:43:03.283Z,100876.38
2022-08-26T22:45:32.405Z,100869.91
2022-08-26T22:48:00.406Z,100863.59
2022-08-26T22:50:28.912Z,100849.63
2022-08-26T22:52:56.846Z,100845.69
2022-08-26T22:55:24.788Z,100833.13
2022-08-26T22:57:52.525Z,100833.28
2022-08-26T23:00:20.240Z,100820.66
2022-08-26T23:03:04.450Z,100820.00
2022-08-26T23:05:36.639Z,100820.16
2022-08-26T23:08:04.681Z,100814.00
2022-08-26T23:10:32.614Z,100805.50
2022-08-26T23:13:00.368Z,100802.13
2022-08-26T23:15:28.262Z,100795.66
2022-08-26T23:17:58.517Z,100795.13
2022-08-26T23:20:38.544Z,100794.63
2022-08-26T23:23:06.429Z,100795.63
2022-08-26T23:25:34.201Z,100801.41
2022-08-26T23:28:01.919Z,100797.00
2022-08-26T23:30:30.117Z,100804.50
2022-08-26T23:33:01.364Z,100802.78
2022-08-26T23:35:31.902Z,100807.88
2022-08-26T23:38:01.969Z,100807.88
2022-08-26T23:40:32.103Z,100813.00
2022-08-26T23:43:00.136Z,100815.00
2022-08-26T23:45:28.044Z,100820.44
2022-08-26T23:47:55.854Z,100831.34
2022-08-26T23:50:44.504Z,100826.19
2022-08-26T23:53:19.322Z,100826.19
2022-08-26T23:55:48.093Z,100834.22
2022-08-26T23:58:16.064Z,100835.59
